Terminal Aerodrome Forecast
Issued by NWS Newport/Morehead City, NC

Home | Current Version | Previous Version | Text Only | Print | Product List | Glossary Off
Versions: 1 2 3 4 5 6 7 8 9 10 11 12 13 14 15 16 17 18 19 20

190
FTUS42 KMHX 210923 AAA
TAFEWN
TAF AMD
KEWN 210923Z 2109/2206 00000KT 3/4SM BR VV002
     FM211200 VRB03KT P6SM SKC=

USA.gov is the U.S. government's official web portal to all federal, state and local government web resources and services.